createdAt,value
2023-03-10T00:01:18.400Z,102.45
2023-03-10T00:03:46.876Z,112.22
2023-03-10T00:06:16.576Z,115.78
2023-03-10T00:08:44.173Z,121.40
2023-03-10T00:11:12.366Z,125.97
2023-03-10T00:13:39.753Z,114.32
2023-03-10T00:16:08.476Z,109.53
2023-03-10T00:18:35.950Z,105.22
2023-03-10T00:21:03.694Z,103.05
2023-03-10T00:23:30.955Z,100.30
2023-03-10T00:26:00.646Z,88.60
2023-03-10T00:28:28.582Z,78.97
2023-03-10T00:31:05.219Z,81.18
2023-03-10T00:33:34.178Z,80.03
2023-03-10T00:36:10.462Z,79.60
2023-03-10T00:41:08.509Z,77.00
2023-03-10T00:43:36.768Z,70.05
2023-03-10T00:46:05.043Z,98.22
2023-03-10T00:48:32.821Z,75.57
2023-03-10T00:51:00.436Z,76.03
2023-03-10T00:53:28.568Z,79.80
2023-03-10T00:56:08.134Z,86.78
2023-03-10T00:58:35.491Z,75.20
2023-03-10T01:01:04.326Z,66.97
2023-03-10T01:03:31.717Z,56.85
2023-03-10T01:05:59.142Z,55.47
2023-03-10T01:08:26.365Z,47.40
2023-03-10T01:10:53.991Z,45.00
2023-03-10T01:13:21.283Z,49.70
2023-03-10T01:15:51.155Z,29.80
2023-03-10T01:18:20.234Z,22.25
2023-03-10T01:20:48.732Z,41.33
2023-03-10T01:23:24.601Z,48.95
2023-03-10T01:25:52.981Z,40.83
2023-03-10T01:28:22.589Z,32.22
2023-03-10T01:30:50.445Z,25.52
2023-03-10T01:33:18.233Z,27.27
2023-03-10T01:35:45.834Z,31.60
2023-03-10T01:38:13.186Z,18.65
2023-03-10T01:40:41.211Z,36.38
2023-03-10T01:43:22.195Z,45.58
2023-03-10T01:45:52.748Z,25.60
2023-03-10T01:48:22.309Z,11.10
2023-03-10T01:50:53.963Z,12.65
2023-03-10T01:53:25.197Z,6.47
2023-03-10T01:55:56.736Z,24.45
2023-03-10T01:58:29.596Z,26.02
2023-03-10T02:00:57.122Z,19.10
2023-03-10T02:03:33.269Z,22.25
2023-03-10T02:06:05.463Z,13.05
2023-03-10T02:08:44.108Z,10.07
2023-03-10T02:11:15.147Z,7.28
2023-03-10T02:13:43.223Z,6.05
2023-03-10T02:16:11.494Z,16.00
2023-03-10T02:18:40.317Z,12.07
2023-03-10T02:21:31.834Z,17.05
2023-03-10T02:24:21.255Z,17.27
2023-03-10T02:27:11.236Z,17.05
2023-03-10T02:29:57.937Z,18.85
2023-03-10T02:32:30.918Z,21.17
2023-03-10T02:34:58.211Z,20.40
2023-03-10T02:37:30.672Z,16.40
2023-03-10T02:39:58.859Z,20.42
2023-03-10T02:42:34.558Z,14.98
2023-03-10T02:45:03.658Z,10.73
2023-03-10T02:47:31.254Z,15.95
2023-03-10T02:49:58.518Z,17.35
2023-03-10T02:52:34.923Z,23.70
2023-03-10T02:55:02.195Z,25.15
2023-03-10T02:57:29.883Z,21.98
2023-03-10T02:59:57.163Z,28.17
2023-03-10T03:02:24.654Z,15.70
2023-03-10T03:04:51.859Z,11.43
2023-03-10T03:07:19.504Z,9.60
2023-03-10T03:09:46.807Z,11.13
2023-03-10T03:12:14.430Z,17.67
2023-03-10T03:14:41.723Z,20.13
2023-03-10T03:17:09.248Z,16.88
2023-03-10T03:19:36.498Z,10.77
2023-03-10T03:22:04.365Z,18.63
2023-03-10T03:24:32.691Z,9.57
2023-03-10T03:27:00.182Z,11.45
2023-03-10T03:29:29.006Z,16.50
2023-03-10T03:31:56.574Z,11.55
2023-03-10T03:34:28.435Z,11.38
2023-03-10T03:36:59.251Z,9.30
2023-03-10T03:39:33.924Z,14.82
2023-03-10T03:42:05.315Z,14.23
2023-03-10T03:44:42.401Z,12.63
2023-03-10T03:47:10.949Z,15.82
2023-03-10T03:49:39.377Z,13.50
2023-03-10T03:52:07.937Z,19.92
2023-03-10T03:54:35.850Z,18.27
2023-03-10T03:57:03.926Z,18.35
2023-03-10T03:59:31.242Z,23.25
2023-03-10T04:01:58.952Z,44.25
2023-03-10T04:04:26.509Z,49.42
2023-03-10T04:06:55.935Z,58.15
2023-03-10T04:09:23.791Z,61.08
2023-03-10T04:11:51.269Z,72.18
2023-03-10T04:14:19.280Z,78.03
2023-03-10T04:16:46.861Z,81.20
2023-03-10T04:19:15.230Z,78.47
2023-03-10T04:21:46.186Z,71.80
2023-03-10T04:24:14.012Z,94.13
2023-03-10T04:26:42.011Z,95.00
2023-03-10T04:29:09.862Z,118.38
2023-03-10T04:31:40.112Z,113.88
2023-03-10T04:34:09.845Z,106.65
2023-03-10T04:36:38.696Z,100.80
2023-03-10T04:39:07.329Z,90.15
2023-03-10T04:41:34.936Z,78.85
2023-03-10T04:44:03.323Z,78.72
2023-03-10T04:46:33.039Z,82.70
2023-03-10T04:49:01.794Z,88.70
2023-03-10T04:51:29.332Z,83.22
2023-03-10T04:53:57.949Z,84.97
2023-03-10T04:56:29.432Z,88.68
2023-03-10T04:58:56.766Z,111.65
2023-03-10T05:01:25.708Z,74.53
2023-03-10T05:04:03.844Z,94.75
2023-03-10T05:06:32.603Z,102.72
2023-03-10T05:09:09.381Z,90.70
2023-03-10T05:11:37.376Z,91.82
2023-03-10T05:14:04.711Z,60.90
2023-03-10T05:16:32.843Z,67.68
2023-03-10T05:19:00.161Z,59.00
2023-03-10T05:21:30.113Z,67.13
2023-03-10T05:23:58.619Z,76.88
2023-03-10T05:26:26.554Z,72.85
2023-03-10T05:28:54.311Z,67.45
2023-03-10T05:31:29.781Z,98.20
2023-03-10T05:34:03.757Z,103.72
2023-03-10T05:36:31.504Z,204.10
2023-03-10T05:38:58.755Z,226.27
2023-03-10T05:41:26.271Z,191.23
2023-03-10T05:43:56.766Z,174.52
2023-03-10T05:46:25.327Z,154.18
2023-03-10T05:48:57.197Z,156.05
2023-03-10T05:51:25.145Z,161.65
2023-03-10T05:53:52.321Z,151.32
2023-03-10T05:56:25.176Z,157.18
2023-03-10T05:58:56.269Z,169.35
2023-03-10T06:01:29.694Z,157.15
2023-03-10T06:03:57.517Z,172.63
2023-03-10T06:06:25.106Z,179.43
2023-03-10T06:08:52.376Z,124.15
2023-03-10T06:11:19.977Z,121.50
2023-03-10T06:13:47.146Z,74.22
2023-03-10T06:16:14.899Z,51.15
2023-03-10T06:18:42.164Z,53.60
2023-03-10T06:21:12.307Z,49.10
2023-03-10T06:23:39.858Z,47.92
2023-03-10T06:26:13.241Z,53.92
2023-03-10T06:28:42.597Z,90.22
2023-03-10T06:31:15.648Z,95.55
2023-03-10T06:33:43.107Z,94.22
2023-03-10T06:36:14.468Z,102.20
2023-03-10T06:38:41.956Z,109.55
2023-03-10T06:41:09.585Z,100.80
2023-03-10T06:43:37.385Z,108.47
2023-03-10T06:46:07.470Z,119.97
2023-03-10T06:48:36.851Z,94.25
2023-03-10T06:51:08.833Z,108.95
2023-03-10T06:53:36.217Z,89.78
2023-03-10T06:56:06.679Z,90.13
2023-03-10T06:58:36.011Z,104.43
2023-03-10T07:01:03.778Z,107.10
2023-03-10T07:03:31.312Z,92.20
2023-03-10T07:05:59.868Z,60.75
2023-03-10T07:08:28.464Z,55.50
2023-03-10T07:10:56.619Z,52.03
2023-03-10T07:13:23.922Z,49.70
2023-03-10T07:15:51.416Z,57.50
2023-03-10T07:18:18.994Z,46.22
2023-03-10T07:20:48.027Z,50.22
2023-03-10T07:23:15.750Z,56.45
2023-03-10T07:25:43.307Z,50.05
2023-03-10T07:28:10.839Z,35.55
2023-03-10T07:30:40.083Z,35.47
2023-03-10T07:33:07.380Z,23.48
2023-03-10T07:35:37.050Z,18.48
2023-03-10T07:38:04.672Z,14.20
2023-03-10T07:40:32.342Z,13.80
2023-03-10T07:42:59.615Z,22.27
2023-03-10T07:45:31.061Z,33.92
2023-03-10T07:47:58.283Z,26.85
2023-03-10T07:50:25.922Z,16.48
2023-03-10T07:52:55.112Z,12.68
2023-03-10T07:55:22.957Z,15.20
2023-03-10T07:57:50.368Z,18.08
2023-03-10T08:00:18.433Z,17.33
2023-03-10T08:02:45.735Z,19.83
2023-03-10T08:05:15.108Z,19.75
2023-03-10T08:07:43.709Z,15.68
2023-03-10T08:10:12.061Z,18.88
2023-03-10T08:12:39.549Z,17.02
2023-03-10T08:15:07.658Z,9.10
2023-03-10T08:17:35.544Z,9.57
2023-03-10T08:20:05.162Z,7.95
2023-03-10T08:22:33.008Z,12.52
2023-03-10T08:25:00.798Z,9.75
2023-03-10T08:27:29.252Z,6.90
2023-03-10T08:29:59.213Z,5.50
2023-03-10T08:32:30.513Z,6.55
2023-03-10T08:35:00.408Z,7.40
2023-03-10T08:37:28.938Z,3.70
2023-03-10T08:39:59.631Z,5.22
2023-03-10T08:42:27.418Z,7.15
2023-03-10T08:44:56.240Z,8.32
2023-03-10T08:47:23.868Z,6.45
2023-03-10T08:49:51.623Z,12.10
2023-03-10T08:52:18.923Z,3.20
2023-03-10T08:54:46.559Z,3.47
2023-03-10T08:57:13.862Z,4.00
2023-03-10T08:59:41.348Z,1.63
2023-03-10T09:02:15.025Z,3.53
2023-03-10T09:04:43.001Z,9.95
2023-03-10T09:07:10.502Z,8.93
2023-03-10T09:09:38.182Z,5.53
2023-03-10T09:12:07.175Z,29.45
2023-03-10T09:14:35.745Z,2.83
2023-03-10T09:17:03.132Z,4.10
2023-03-10T09:19:30.738Z,4.05
2023-03-10T09:21:59.484Z,4.03
2023-03-10T09:24:27.127Z,2.35
2023-03-10T09:26:55.971Z,3.00
2023-03-10T09:29:41.767Z,4.00
2023-03-10T09:32:10.570Z,8.50
2023-03-10T09:34:38.341Z,5.60
2023-03-10T09:37:07.477Z,8.57
2023-03-10T09:39:36.105Z,2.22
2023-03-10T09:42:37.844Z,7.05
2023-03-10T09:45:24.350Z,2.60
2023-03-10T09:48:08.921Z,3.53
2023-03-10T09:50:56.891Z,3.65
2023-03-10T09:53:38.590Z,1.60
2023-03-10T09:56:13.231Z,6.10
2023-03-10T09:58:45.831Z,6.05
2023-03-10T10:01:17.836Z,4.47
2023-03-10T10:03:53.109Z,8.23
2023-03-10T10:06:29.030Z,6.40
2023-03-10T10:09:14.003Z,5.90
2023-03-10T10:11:42.117Z,3.33
2023-03-10T10:14:18.733Z,3.28
2023-03-10T10:17:35.351Z,4.63
2023-03-10T10:20:07.212Z,11.48
2023-03-10T10:22:38.321Z,3.08
2023-03-10T10:25:09.413Z,4.97
2023-03-10T10:27:39.599Z,4.25
2023-03-10T10:30:37.004Z,3.75
2023-03-10T10:33:08.563Z,7.20
2023-03-10T10:35:39.929Z,4.82
2023-03-10T10:38:10.639Z,6.03
2023-03-10T10:40:48.392Z,2.92
2023-03-10T10:43:18.113Z,4.07
2023-03-10T10:45:54.303Z,3.65
2023-03-10T10:48:46.329Z,6.65
2023-03-10T10:51:29.398Z,6.28
2023-03-10T10:54:06.539Z,4.47
2023-03-10T10:56:34.238Z,2.83
2023-03-10T10:59:27.986Z,4.35
2023-03-10T11:01:59.948Z,3.97
2023-03-10T11:04:40.658Z,11.30
2023-03-10T11:07:11.169Z,4.35
2023-03-10T11:09:38.780Z,6.00
2023-03-10T11:12:09.517Z,3.72
2023-03-10T11:14:46.222Z,8.48
2023-03-10T11:17:21.724Z,5.82
2023-03-10T11:20:13.449Z,4.03
2023-03-10T11:22:58.962Z,4.20
2023-03-10T11:25:32.621Z,3.15
2023-03-10T11:28:02.620Z,6.22
2023-03-10T11:30:37.426Z,7.05
2023-03-10T11:33:28.091Z,3.67
2023-03-10T11:36:13.553Z,6.38
2023-03-10T11:38:58.536Z,4.63
2023-03-10T11:41:31.342Z,2.47
2023-03-10T11:44:14.965Z,8.18
2023-03-10T11:46:58.797Z,7.35
2023-03-10T11:49:45.133Z,10.35
2023-03-10T11:52:19.770Z,4.18
2023-03-10T11:54:55.676Z,8.95
2023-03-10T11:57:26.777Z,4.28
2023-03-10T12:00:01.639Z,2.60
2023-03-10T12:03:03.678Z,10.73
2023-03-10T12:05:46.199Z,3.38
2023-03-10T12:08:16.994Z,4.38
2023-03-10T12:10:44.683Z,6.97
2023-03-10T12:13:23.952Z,10.98
2023-03-10T12:15:54.956Z,3.13
2023-03-10T12:18:25.000Z,6.32
2023-03-10T12:21:31.991Z,5.57
2023-03-10T12:24:02.878Z,5.93
2023-03-10T12:26:39.118Z,6.38
2023-03-10T12:29:21.808Z,4.35
2023-03-10T12:31:51.836Z,5.95
2023-03-10T12:34:22.683Z,5.43
2023-03-10T12:37:11.579Z,3.05
2023-03-10T12:39:44.097Z,7.85
2023-03-10T12:42:28.022Z,6.30
2023-03-10T12:45:07.188Z,6.95
2023-03-10T12:47:47.821Z,6.25
2023-03-10T12:50:46.246Z,6.38
2023-03-10T12:53:41.409Z,18.10
2023-03-10T12:56:12.139Z,6.57
2023-03-10T12:59:08.517Z,4.72
2023-03-10T13:01:55.107Z,7.00
2023-03-10T13:04:25.862Z,10.18
2023-03-10T13:06:57.946Z,11.07
2023-03-10T13:09:38.623Z,6.18
2023-03-10T13:12:17.528Z,2.35
2023-03-10T13:14:45.076Z,2.30
2023-03-10T13:17:26.009Z,3.47
2023-03-10T13:20:00.767Z,4.13
2023-03-10T13:22:28.639Z,3.22
2023-03-10T13:25:02.179Z,10.75
2023-03-10T13:27:33.468Z,9.43
2023-03-10T13:30:14.282Z,5.97
2023-03-10T13:32:42.838Z,8.98
2023-03-10T13:35:36.060Z,3.67
2023-03-10T13:38:19.354Z,3.28
2023-03-10T13:40:59.292Z,5.63
2023-03-10T13:43:36.897Z,8.43
2023-03-10T13:46:22.731Z,9.00
2023-03-10T13:48:51.330Z,9.38
2023-03-10T13:51:32.078Z,10.65
2023-03-10T13:54:22.683Z,9.65
2023-03-10T13:56:56.953Z,8.20
2023-03-10T13:59:31.498Z,11.50
2023-03-10T14:02:04.192Z,9.55
2023-03-10T14:04:39.392Z,8.13
2023-03-10T14:07:09.255Z,11.20
2023-03-10T14:09:37.253Z,16.23
2023-03-10T14:12:04.899Z,18.25
2023-03-10T14:14:35.974Z,17.85
2023-03-10T14:17:06.413Z,7.65
2023-03-10T14:19:42.966Z,6.65
2023-03-10T14:22:36.011Z,18.98
2023-03-10T14:25:23.515Z,14.90
2023-03-10T14:27:59.902Z,6.72
2023-03-10T14:30:30.667Z,9.40
2023-03-10T14:33:00.455Z,19.98
2023-03-10T14:35:30.059Z,17.85
2023-03-10T14:37:57.602Z,8.07
2023-03-10T14:40:26.162Z,32.88
2023-03-10T14:42:57.972Z,29.73
2023-03-10T14:45:35.343Z,20.35
2023-03-10T14:48:11.628Z,22.33
2023-03-10T14:50:39.534Z,14.57
2023-03-10T14:53:12.399Z,12.45
2023-03-10T14:55:42.293Z,14.07
2023-03-10T14:58:17.294Z,12.30
2023-03-10T15:03:13.452Z,6.85
2023-03-10T15:05:48.812Z,26.15
2023-03-10T15:08:18.242Z,25.02
2023-03-10T15:11:00.603Z,28.92
2023-03-10T15:13:28.342Z,23.90
2023-03-10T15:15:56.049Z,13.35
2023-03-10T15:18:24.762Z,12.88
2023-03-10T15:20:52.659Z,7.63
2023-03-10T15:23:20.448Z,14.23
2023-03-10T15:25:48.724Z,17.45
2023-03-10T15:28:16.723Z,27.42
2023-03-10T15:30:44.465Z,40.58
2023-03-10T15:33:12.751Z,35.03
2023-03-10T15:35:41.450Z,22.83
2023-03-10T15:38:09.016Z,31.38
2023-03-10T15:40:37.046Z,17.13
2023-03-10T15:43:04.679Z,12.50
2023-03-10T15:45:33.924Z,15.15
2023-03-10T15:48:01.495Z,11.18
2023-03-10T15:50:29.092Z,14.00
2023-03-10T15:52:59.701Z,12.98
2023-03-10T15:55:29.268Z,7.35
2023-03-10T15:57:58.000Z,10.57
2023-03-10T16:00:27.226Z,4.63
2023-03-10T16:02:54.877Z,11.13
2023-03-10T16:05:22.916Z,10.30
2023-03-10T16:07:50.975Z,14.00
2023-03-10T16:10:20.730Z,23.27
2023-03-10T16:12:48.108Z,25.88
2023-03-10T16:15:18.264Z,21.75
2023-03-10T16:17:45.917Z,17.35
2023-03-10T16:20:14.154Z,22.33
2023-03-10T16:22:43.230Z,13.45
2023-03-10T16:25:17.393Z,7.50
2023-03-10T16:27:46.149Z,9.38
2023-03-10T16:30:16.008Z,14.60
2023-03-10T16:32:48.394Z,10.70
2023-03-10T16:35:17.634Z,16.50
2023-03-10T16:37:44.971Z,26.83
2023-03-10T16:40:13.304Z,19.75
2023-03-10T16:42:43.747Z,29.95
2023-03-10T16:45:11.685Z,38.13
2023-03-10T16:47:39.372Z,46.80
2023-03-10T16:50:07.372Z,42.85
2023-03-10T16:52:40.009Z,27.73
2023-03-10T16:55:13.075Z,25.77
2023-03-10T16:57:40.366Z,25.05
2023-03-10T17:00:09.627Z,32.83
2023-03-10T17:02:36.948Z,24.25
2023-03-10T17:05:05.544Z,26.05
2023-03-10T17:07:34.839Z,43.50
2023-03-10T17:10:04.465Z,28.50
2023-03-10T17:12:31.706Z,23.38
2023-03-10T17:14:59.416Z,25.48
2023-03-10T17:17:28.961Z,12.90
2023-03-10T17:19:56.681Z,11.10
2023-03-10T17:22:24.139Z,20.27
2023-03-10T17:24:56.683Z,11.65
2023-03-10T17:27:24.881Z,13.60
2023-03-10T17:29:52.621Z,7.18
2023-03-10T17:32:19.929Z,6.07
2023-03-10T17:34:52.337Z,7.50
2023-03-10T17:37:19.573Z,8.25
2023-03-10T17:39:48.469Z,13.30
2023-03-10T17:42:16.028Z,19.33
2023-03-10T17:44:44.667Z,7.90
2023-03-10T17:47:12.531Z,10.10
2023-03-10T17:49:41.282Z,9.02
2023-03-10T17:52:08.712Z,23.30
2023-03-10T17:54:36.852Z,14.85
2023-03-10T17:57:04.401Z,14.25
2023-03-10T17:59:33.668Z,15.23
2023-03-10T18:02:04.371Z,16.63
2023-03-10T18:04:32.189Z,16.63
2023-03-10T18:06:59.752Z,15.75
2023-03-10T18:09:27.446Z,14.65
2023-03-10T18:11:57.316Z,16.88
2023-03-10T18:14:25.490Z,14.60
2023-03-10T18:16:52.753Z,13.15
2023-03-10T18:19:21.482Z,14.63
2023-03-10T18:21:49.564Z,22.00
2023-03-10T18:24:17.779Z,19.70
2023-03-10T18:26:45.828Z,18.80
2023-03-10T18:29:14.493Z,30.35
2023-03-10T18:31:42.140Z,38.58
2023-03-10T18:34:10.454Z,24.63
2023-03-10T18:36:38.005Z,10.27
2023-03-10T18:39:07.459Z,18.50
2023-03-10T18:41:36.184Z,20.77
2023-03-10T18:44:06.652Z,14.35
2023-03-10T18:46:34.293Z,92.07
2023-03-10T18:49:01.649Z,89.28
2023-03-10T18:51:29.665Z,62.22
2023-03-10T18:53:57.145Z,102.00
2023-03-10T18:56:26.256Z,75.07
2023-03-10T18:58:53.927Z,72.97
2023-03-10T19:01:21.710Z,121.80
2023-03-10T19:03:49.402Z,57.90
2023-03-10T19:06:17.309Z,55.20
2023-03-10T19:08:45.003Z,61.15
2023-03-10T19:11:13.219Z,140.90
2023-03-10T19:13:43.780Z,119.32
2023-03-10T19:16:11.827Z,198.05
2023-03-10T19:18:40.515Z,67.75
2023-03-10T19:21:09.708Z,54.50
2023-03-10T19:23:37.367Z,106.10
2023-03-10T19:26:09.155Z,221.50
2023-03-10T19:28:36.588Z,168.90
2023-03-10T19:31:09.938Z,211.48
2023-03-10T19:33:38.540Z,224.80
2023-03-10T19:36:11.335Z,303.70
2023-03-10T19:38:41.237Z,458.65
2023-03-10T19:41:15.150Z,261.70
2023-03-10T19:43:44.094Z,149.45
2023-03-10T19:46:13.816Z,63.13
2023-03-10T19:48:41.530Z,58.05
2023-03-10T19:51:09.646Z,72.05
2023-03-10T19:53:37.002Z,79.15
2023-03-10T19:56:05.492Z,62.83
2023-03-10T19:58:32.990Z,75.30
2023-03-10T20:01:00.769Z,216.07
2023-03-10T20:03:30.777Z,190.00
2023-03-10T20:05:58.482Z,146.07
2023-03-10T20:08:25.882Z,138.23
2023-03-10T20:10:53.770Z,123.10
2023-03-10T20:13:21.395Z,107.32
2023-03-10T20:15:49.297Z,113.32
2023-03-10T20:18:18.664Z,104.15
2023-03-10T20:20:46.336Z,101.75
2023-03-10T20:23:14.030Z,95.63
2023-03-10T20:25:42.465Z,95.75
2023-03-10T20:28:10.848Z,112.97
2023-03-10T20:30:40.161Z,128.13
2023-03-10T20:33:08.407Z,117.53
2023-03-10T20:35:38.294Z,100.53
2023-03-10T20:38:06.042Z,129.65
2023-03-10T20:40:34.129Z,76.90
2023-03-10T20:43:01.699Z,63.63
2023-03-10T20:45:29.351Z,76.35
2023-03-10T20:47:57.399Z,102.70
2023-03-10T20:50:25.110Z,88.35
2023-03-10T20:52:55.477Z,105.03
2023-03-10T20:55:26.263Z,133.80
2023-03-10T20:57:55.801Z,161.75
2023-03-10T21:00:25.693Z,304.15
2023-03-10T21:02:57.189Z,190.77
2023-03-10T21:05:27.376Z,220.55
2023-03-10T21:07:58.400Z,272.90
2023-03-10T21:10:26.815Z,286.15
2023-03-10T21:12:54.398Z,317.65
2023-03-10T21:15:23.894Z,313.08
2023-03-10T21:17:51.384Z,527.17
2023-03-10T21:20:21.694Z,413.90
2023-03-10T21:22:49.909Z,230.10
2023-03-10T21:25:23.911Z,167.27
2023-03-10T21:27:55.976Z,364.88
2023-03-10T21:30:23.714Z,295.08
2023-03-10T21:32:51.040Z,266.33
2023-03-10T21:35:18.897Z,236.48
2023-03-10T21:37:48.163Z,216.18
2023-03-10T21:40:19.943Z,200.63
2023-03-10T21:42:48.569Z,173.90
2023-03-10T21:45:20.647Z,144.57
2023-03-10T21:47:48.224Z,125.15
2023-03-10T21:50:17.816Z,107.57
2023-03-10T21:52:45.419Z,134.73
2023-03-10T21:55:19.989Z,136.75
2023-03-10T21:57:48.895Z,178.60
2023-03-10T22:00:19.454Z,196.05
2023-03-10T22:02:47.802Z,184.98
2023-03-10T22:05:17.484Z,157.60
2023-03-10T22:07:45.178Z,168.32
2023-03-10T22:10:13.550Z,118.97
2023-03-10T22:12:41.278Z,108.38
2023-03-10T22:15:16.007Z,107.72
2023-03-10T22:17:43.265Z,116.72
2023-03-10T22:20:17.393Z,105.13
2023-03-10T22:22:45.096Z,120.05
2023-03-10T22:25:13.182Z,128.70
2023-03-10T22:27:41.199Z,121.47
2023-03-10T22:30:09.955Z,123.70
2023-03-10T22:32:37.381Z,119.45
2023-03-10T22:35:05.401Z,111.40
2023-03-10T22:37:32.722Z,115.80
2023-03-10T22:40:00.231Z,108.03
2023-03-10T22:42:27.732Z,110.95
2023-03-10T22:44:55.460Z,114.47
2023-03-10T22:47:22.713Z,114.22
2023-03-10T22:49:50.216Z,116.93
2023-03-10T22:52:17.500Z,145.00
2023-03-10T22:54:45.127Z,136.80
2023-03-10T22:57:15.316Z,131.63
2023-03-10T22:59:42.913Z,142.27
2023-03-10T23:02:10.856Z,144.57
2023-03-10T23:04:39.325Z,166.93
2023-03-10T23:07:06.611Z,190.75
2023-03-10T23:09:34.173Z,177.32
2023-03-10T23:12:01.431Z,130.10
2023-03-10T23:14:32.019Z,118.82
2023-03-10T23:16:59.229Z,144.90
2023-03-10T23:19:26.772Z,136.88
2023-03-10T23:21:54.774Z,134.25
2023-03-10T23:24:23.274Z,139.18
2023-03-10T23:26:52.724Z,189.57
2023-03-10T23:29:20.350Z,196.18
2023-03-10T23:31:47.577Z,186.38
2023-03-10T23:34:15.591Z,189.65
2023-03-10T23:36:42.795Z,167.90
2023-03-10T23:39:13.633Z,139.20
2023-03-10T23:41:43.770Z,156.43
2023-03-10T23:44:11.371Z,152.80
2023-03-10T23:46:38.599Z,158.82
2023-03-10T23:49:06.091Z,158.85
2023-03-10T23:51:35.901Z,146.52
2023-03-10T23:54:03.488Z,148.77
2023-03-10T23:56:31.166Z,153.05
2023-03-10T23:58:59.065Z,154.95
